createdAt,value
2017-12-12T00:01:02.332Z,3.79
2017-12-12T00:02:12.616Z,3.79
2017-12-12T00:03:23.569Z,3.83
2017-12-12T00:05:06.111Z,3.76
2017-12-12T00:06:17.124Z,3.86
2017-12-12T00:07:27.831Z,3.77
2017-12-12T00:08:38.828Z,3.83
2017-12-12T00:09:49.907Z,3.83
2017-12-12T00:11:00.832Z,3.83
2017-12-12T00:12:11.033Z,3.83
2017-12-12T00:13:21.146Z,3.8
2017-12-12T00:14:32.149Z,3.79
2017-12-12T00:15:42.854Z,3.83
2017-12-12T00:16:53.699Z,3.8
2017-12-12T00:18:04.652Z,3.86
2017-12-12T00:19:16.251Z,3.82
2017-12-12T00:20:27.149Z,3.8
2017-12-12T00:21:38.213Z,3.8
2017-12-12T00:22:49.347Z,3.82
2017-12-12T00:24:00.231Z,3.83
2017-12-12T00:25:11.005Z,3.8
2017-12-12T00:26:22.056Z,3.83
2017-12-12T00:27:32.851Z,3.82
2017-12-12T00:28:43.488Z,3.82
2017-12-12T00:29:53.972Z,3.85
2017-12-12T00:31:04.744Z,3.79
2017-12-12T00:32:14.952Z,3.9
2017-12-12T00:33:25.888Z,3.8
2017-12-12T00:34:36.848Z,3.83
2017-12-12T00:35:47.796Z,3.86
2017-12-12T00:36:58.570Z,3.91
2017-12-12T00:38:09.551Z,3.91
2017-12-12T00:39:20.223Z,3.95
2017-12-12T00:40:31.228Z,3.83
2017-12-12T00:41:42.122Z,3.97
2017-12-12T00:42:53.133Z,3.94
2017-12-12T00:44:03.748Z,3.85
2017-12-12T00:45:14.306Z,3.85
2017-12-12T00:46:25.301Z,3.94
2017-12-12T00:47:35.747Z,3.97
2017-12-12T00:48:46.293Z,3.9
2017-12-12T00:49:56.750Z,3.91
2017-12-12T00:51:07.321Z,3.95
2017-12-12T00:52:17.995Z,3.91
2017-12-12T00:53:28.812Z,4.03
2017-12-12T00:54:39.739Z,3.94
2017-12-12T00:55:50.700Z,3.93
2017-12-12T00:57:01.709Z,3.98
2017-12-12T00:58:12.086Z,4
2017-12-12T00:59:23.110Z,4.03
2017-12-12T01:00:33.775Z,4.08
2017-12-12T01:01:44.702Z,4.08
2017-12-12T01:02:55.670Z,4.09
2017-12-12T01:04:06.782Z,4.13
2017-12-12T01:05:17.417Z,4.16
2017-12-12T01:06:28.422Z,4.2
2017-12-12T01:07:39.455Z,4.23
2017-12-12T01:08:50.120Z,4.34
2017-12-12T01:10:00.518Z,4.3
2017-12-12T01:11:11.292Z,4.38
2017-12-12T01:12:21.897Z,4.43
2017-12-12T01:13:32.393Z,4.4
2017-12-12T01:14:43.123Z,4.46
2017-12-12T01:15:53.992Z,4.49
2017-12-12T01:17:04.819Z,4.53
2017-12-12T01:18:15.322Z,4.52
2017-12-12T01:19:26.136Z,4.55
2017-12-12T01:20:37.060Z,4.57
2017-12-12T01:21:48.055Z,4.62
2017-12-12T01:22:58.870Z,4.6
2017-12-12T01:24:09.691Z,4.6
2017-12-12T01:25:20.321Z,4.57
2017-12-12T01:26:31.033Z,4.73
2017-12-12T01:27:41.571Z,4.7
2017-12-12T01:28:52.094Z,4.71
2017-12-12T01:30:03.072Z,4.67
2017-12-12T01:31:13.756Z,4.65
2017-12-12T01:32:24.500Z,4.77
2017-12-12T01:33:35.215Z,4.7
2017-12-12T01:34:45.819Z,4.81
2017-12-12T01:35:56.579Z,4.83
2017-12-12T01:37:07.093Z,4.9
2017-12-12T01:38:17.949Z,4.81
2017-12-12T01:39:28.873Z,4.85
2017-12-12T01:40:39.414Z,4.81
2017-12-12T01:41:50.157Z,4.8
2017-12-12T01:43:00.893Z,4.85
2017-12-12T01:44:11.366Z,4.83
2017-12-12T01:45:22.212Z,4.86
2017-12-12T01:46:32.661Z,4.8
2017-12-12T01:47:43.500Z,4.8
2017-12-12T01:48:54.527Z,4.85
2017-12-12T01:50:05.221Z,4.85
2017-12-12T01:51:16.624Z,4.85
2017-12-12T01:52:27.313Z,4.81
2017-12-12T01:53:38.051Z,4.83
2017-12-12T01:54:48.730Z,4.86
2017-12-12T01:55:59.301Z,4.85
2017-12-12T01:57:09.741Z,4.89
2017-12-12T01:58:20.230Z,4.92
2017-12-12T01:59:30.778Z,4.96
2017-12-12T02:00:41.118Z,4.92
2017-12-12T02:01:52.011Z,4.96
2017-12-12T02:03:02.985Z,4.93
2017-12-12T02:04:13.730Z,4.93
2017-12-12T02:05:25.079Z,4.93
2017-12-12T02:06:35.633Z,5.06
2017-12-12T02:07:46.065Z,4.99
2017-12-12T02:08:56.683Z,5
2017-12-12T02:10:07.479Z,5.06
2017-12-12T02:11:18.025Z,5
2017-12-12T02:12:28.926Z,5.07
2017-12-12T02:13:39.796Z,5
2017-12-12T02:14:50.286Z,5.04
2017-12-12T02:16:01.334Z,5
2017-12-12T02:17:12.244Z,4.99
2017-12-12T02:18:22.721Z,5.04
2017-12-12T02:19:33.456Z,5.1
2017-12-12T02:20:43.977Z,5.1
2017-12-12T02:21:54.762Z,5.07
2017-12-12T02:23:05.549Z,5.1
2017-12-12T02:24:15.971Z,5.04
2017-12-12T02:25:58.624Z,5.06
2017-12-12T02:27:09.135Z,5.04
2017-12-12T02:28:20.047Z,5.16
2017-12-12T02:29:30.836Z,5.14
2017-12-12T02:30:41.404Z,5.11
2017-12-12T02:31:52.122Z,5.08
2017-12-12T02:33:03.816Z,5.11
2017-12-12T02:34:13.500Z,5.11
2017-12-12T02:35:24.022Z,5.16
2017-12-12T02:36:34.864Z,5.14
2017-12-12T02:37:45.787Z,5.13
2017-12-12T02:38:56.300Z,5.14
2017-12-12T02:40:05.958Z,5.11
2017-12-12T02:41:17.151Z,5.14
2017-12-12T02:42:29.335Z,5.08
2017-12-12T02:43:41.346Z,5.11
2017-12-12T02:44:51.636Z,5.16
2017-12-12T02:46:01.886Z,5.16
2017-12-12T02:47:12.138Z,5.18
2017-12-12T02:48:22.045Z,5.17
2017-12-12T02:49:32.331Z,5.22
2017-12-12T02:50:42.631Z,5.21
2017-12-12T02:51:52.900Z,5.22
2017-12-12T02:53:03.144Z,5.26
2017-12-12T02:54:13.394Z,5.33
2017-12-12T02:55:23.405Z,5.18
2017-12-12T02:56:33.716Z,5.21
2017-12-12T02:57:43.608Z,5.22
2017-12-12T02:58:53.978Z,5.22
2017-12-12T03:00:03.978Z,5.22
2017-12-12T03:01:14.011Z,5.18
2017-12-12T03:02:24.286Z,5.25
2017-12-12T03:03:34.621Z,5.22
2017-12-12T03:04:44.875Z,5.25
2017-12-12T03:05:55.118Z,5.24
2017-12-12T03:07:04.836Z,5.22
2017-12-12T03:08:15.140Z,5.28
2017-12-12T03:09:25.136Z,5.28
2017-12-12T03:10:35.396Z,5.32
2017-12-12T03:11:45.643Z,5.25
2017-12-12T03:12:55.956Z,5.18
2017-12-12T03:14:05.944Z,5.21
2017-12-12T03:15:16.232Z,5.18
2017-12-12T03:16:26.602Z,5.26
2017-12-12T03:17:36.849Z,5.26
2017-12-12T03:18:47.465Z,5.25
2017-12-12T03:19:57.723Z,5.33
2017-12-12T03:21:08.109Z,5.33
2017-12-12T03:22:18.349Z,5.33
2017-12-12T03:23:28.698Z,5.32
2017-12-12T03:24:38.577Z,5.31
2017-12-12T03:25:48.849Z,5.28
2017-12-12T03:26:59.101Z,5.29
2017-12-12T03:28:08.865Z,5.28
2017-12-12T03:29:18.861Z,5.31
2017-12-12T03:31:00.706Z,5.24
2017-12-12T03:32:10.702Z,5.22
2017-12-12T03:33:21.010Z,5.22
2017-12-12T03:34:31.262Z,5.22
2017-12-12T03:35:41.310Z,5.29
2017-12-12T03:36:51.329Z,5.25
2017-12-12T03:38:01.047Z,5.32
2017-12-12T03:39:11.318Z,5.31
2017-12-12T03:40:21.303Z,5.21
2017-12-12T03:41:31.372Z,5.17
2017-12-12T03:42:41.727Z,5.28
2017-12-12T03:43:51.617Z,5.28
2017-12-12T03:45:01.902Z,5.26
2017-12-12T03:46:12.238Z,5.29
2017-12-12T03:47:22.267Z,5.21
2017-12-12T03:48:32.669Z,5.16
2017-12-12T03:49:42.925Z,5.25
2017-12-12T03:50:52.633Z,5.25
2017-12-12T03:52:02.699Z,5.29
2017-12-12T03:53:14.899Z,5.25
2017-12-12T03:54:25.246Z,5.18
2017-12-12T03:55:35.222Z,5.22
2017-12-12T03:56:45.462Z,5.28
2017-12-12T03:57:55.696Z,5.16
2017-12-12T03:59:05.921Z,5.24
2017-12-12T04:00:16.169Z,5.22
2017-12-12T04:01:26.416Z,5.18
2017-12-12T04:02:36.699Z,5.21
2017-12-12T04:03:47.013Z,5.18
2017-12-12T04:04:56.891Z,5.22
2017-12-12T04:06:06.913Z,5.22
2017-12-12T04:07:16.888Z,5.17
2017-12-12T04:08:27.121Z,5.25
2017-12-12T04:09:37.363Z,5.14
2017-12-12T04:10:47.129Z,5.14
2017-12-12T04:11:57.179Z,5.21
2017-12-12T04:13:07.150Z,5.16
2017-12-12T04:14:18.459Z,5.16
2017-12-12T04:15:28.759Z,5.18
2017-12-12T04:16:38.107Z,5.14
2017-12-12T04:17:48.348Z,5.24
2017-12-12T04:18:58.599Z,5.22
2017-12-12T04:20:08.610Z,5.16
2017-12-12T04:21:18.955Z,5.16
2017-12-12T04:22:30.166Z,5.22
2017-12-12T04:23:40.414Z,5.13
2017-12-12T04:24:50.441Z,5.14
2017-12-12T04:26:00.178Z,5.14
2017-12-12T04:27:10.535Z,5.16
2017-12-12T04:28:20.785Z,5.16
2017-12-12T04:29:30.824Z,5.18
2017-12-12T04:30:40.895Z,5.22
2017-12-12T04:31:51.138Z,5.14
2017-12-12T04:33:01.405Z,5.14
2017-12-12T04:34:11.711Z,5.18
2017-12-12T04:35:21.958Z,5.16
2017-12-12T04:36:32.194Z,5.11
2017-12-12T04:37:42.476Z,5.06
2017-12-12T04:38:52.816Z,5.08
2017-12-12T04:40:03.376Z,5.07
2017-12-12T04:41:13.343Z,5.08
2017-12-12T04:42:24.318Z,5.1
2017-12-12T04:43:34.585Z,5.06
2017-12-12T04:44:44.859Z,5.06
2017-12-12T04:45:55.122Z,5.06
2017-12-12T04:47:05.121Z,5.06
2017-12-12T04:48:15.162Z,5.1
2017-12-12T04:49:24.915Z,4.99
2017-12-12T04:50:35.153Z,5.06
2017-12-12T04:51:45.170Z,5.03
2017-12-12T04:52:56.387Z,5.04
2017-12-12T04:54:06.679Z,5.06
2017-12-12T04:55:16.669Z,5.03
2017-12-12T04:56:26.636Z,5.04
2017-12-12T04:57:36.879Z,5.03
2017-12-12T04:58:46.747Z,5.06
2017-12-12T04:59:56.992Z,5.04
2017-12-12T05:01:06.967Z,5.04
2017-12-12T05:02:17.262Z,4.99
2017-12-12T05:03:27.497Z,5.03
2017-12-12T05:04:37.752Z,5
2017-12-12T05:05:47.997Z,5.03
2017-12-12T05:06:58.280Z,5.03
2017-12-12T05:08:08.008Z,5.07
2017-12-12T05:09:18.068Z,5.03
2017-12-12T05:10:28.334Z,4.99
2017-12-12T05:11:38.313Z,4.99
2017-12-12T05:12:48.572Z,4.99
2017-12-12T05:13:58.998Z,4.98
2017-12-12T05:15:09.094Z,4.98
2017-12-12T05:16:19.098Z,4.92
2017-12-12T05:17:28.876Z,4.92
2017-12-12T05:18:38.893Z,4.93
2017-12-12T05:19:49.049Z,4.95
2017-12-12T05:20:59.326Z,4.95
2017-12-12T05:22:09.575Z,4.92
2017-12-12T05:23:19.556Z,4.92
2017-12-12T05:24:29.805Z,4.93
2017-12-12T05:25:40.120Z,4.93
2017-12-12T05:26:50.467Z,4.95
2017-12-12T05:28:00.749Z,4.93
2017-12-12T05:29:10.994Z,4.9
2017-12-12T05:30:20.897Z,4.95
2017-12-12T05:31:30.897Z,4.81
2017-12-12T05:32:40.918Z,4.86
2017-12-12T05:33:51.272Z,4.93
2017-12-12T05:35:00.902Z,4.86
2017-12-12T05:36:10.896Z,4.81
2017-12-12T05:37:21.148Z,4.86
2017-12-12T05:38:31.396Z,4.86
2017-12-12T05:39:41.898Z,4.81
2017-12-12T05:40:52.171Z,4.78
2017-12-12T05:42:02.455Z,4.83
2017-12-12T05:43:12.697Z,4.78
2017-12-12T05:44:22.959Z,4.8
2017-12-12T05:45:33.215Z,4.74
2017-12-12T05:46:43.478Z,4.86
2017-12-12T05:47:53.479Z,4.86
2017-12-12T05:49:03.754Z,4.81
2017-12-12T05:50:13.632Z,4.83
2017-12-12T05:51:23.361Z,4.86
2017-12-12T05:52:33.686Z,4.73
2017-12-12T05:53:43.961Z,4.88
2017-12-12T05:54:54.234Z,4.88
2017-12-12T05:56:04.213Z,4.77
2017-12-12T05:57:14.464Z,4.78
2017-12-12T05:58:24.706Z,4.75
2017-12-12T05:59:34.522Z,4.8
2017-12-12T06:00:44.926Z,4.74
2017-12-12T06:01:55.194Z,4.68
2017-12-12T06:03:05.205Z,4.77
2017-12-12T06:04:15.526Z,4.74
2017-12-12T06:05:25.455Z,4.65
2017-12-12T06:06:35.362Z,4.63
2017-12-12T06:07:45.747Z,4.81
2017-12-12T06:08:55.988Z,4.75
2017-12-12T06:10:06.068Z,4.77
2017-12-12T06:11:15.964Z,4.71
2017-12-12T06:12:25.844Z,4.62
2017-12-12T06:13:36.132Z,4.52
2017-12-12T06:14:46.111Z,4.31
2017-12-12T06:15:56.465Z,4.2
2017-12-12T06:17:06.452Z,4.09
2017-12-12T06:18:16.784Z,4
2017-12-12T06:19:26.847Z,3.8
2017-12-12T06:20:37.139Z,3.77
2017-12-12T06:21:47.417Z,3.68
2017-12-12T06:22:57.301Z,3.55
2017-12-12T06:24:07.536Z,3.37
2017-12-12T06:25:17.571Z,3.42
2017-12-12T06:26:27.876Z,3.25
2017-12-12T06:27:37.895Z,3.16
2017-12-12T06:28:48.261Z,3.13
2017-12-12T06:29:58.574Z,3.06
2017-12-12T06:31:08.877Z,3.02
2017-12-12T06:32:18.855Z,2.97
2017-12-12T06:33:29.192Z,2.92
2017-12-12T06:34:39.465Z,2.81
2017-12-12T06:35:49.728Z,2.92
2017-12-12T06:36:59.978Z,2.87
2017-12-12T06:38:10.215Z,2.7
2017-12-12T06:39:20.477Z,2.71
2017-12-12T06:40:30.772Z,2.67
2017-12-12T06:41:40.804Z,2.69
2017-12-12T06:42:51.055Z,2.66
2017-12-12T06:44:01.326Z,2.69
2017-12-12T06:45:11.577Z,2.77
2017-12-12T06:46:21.600Z,2.67
2017-12-12T06:47:31.859Z,2.73
2017-12-12T06:48:42.175Z,2.69
2017-12-12T06:49:52.473Z,2.63
2017-12-12T06:51:02.308Z,2.6
2017-12-12T06:52:12.581Z,2.46
2017-12-12T06:53:22.847Z,2.49
2017-12-12T06:54:33.169Z,2.41
2017-12-12T06:55:43.462Z,2.48
2017-12-12T06:56:53.737Z,2.46
2017-12-12T06:58:03.729Z,2.42
2017-12-12T06:59:13.779Z,2.42
2017-12-12T07:00:24.047Z,2.37
2017-12-12T07:01:34.529Z,2.48
2017-12-12T07:02:44.524Z,2.33
2017-12-12T07:03:55.022Z,2.36
2017-12-12T07:05:05.151Z,2.42
2017-12-12T07:06:15.425Z,2.36
2017-12-12T07:07:25.741Z,2.31
2017-12-12T07:08:35.984Z,2.28
2017-12-12T07:09:46.082Z,2.34
2017-12-12T07:10:56.419Z,2.24
2017-12-12T07:12:06.665Z,2.27
2017-12-12T07:13:16.556Z,2.23
2017-12-12T07:14:26.564Z,2.19
2017-12-12T07:15:36.849Z,2.12
2017-12-12T07:16:46.817Z,2.12
2017-12-12T07:17:56.970Z,2.05
2017-12-12T07:19:07.275Z,2.05
2017-12-12T07:20:17.326Z,2
2017-12-12T07:21:27.603Z,2.03
2017-12-12T07:22:37.890Z,1.95
2017-12-12T07:23:48.158Z,2.03
2017-12-12T07:24:58.147Z,2.06
2017-12-12T07:26:08.392Z,1.97
2017-12-12T07:27:18.512Z,1.87
2017-12-12T07:28:28.549Z,1.97
2017-12-12T07:29:38.277Z,1.95
2017-12-12T07:30:48.527Z,2
2017-12-12T07:31:58.790Z,1.92
2017-12-12T07:33:08.838Z,2
2017-12-12T07:34:19.090Z,2.05
2017-12-12T07:35:29.052Z,2.01
2017-12-12T07:36:39.307Z,2
2017-12-12T07:37:49.613Z,2.06
2017-12-12T07:38:59.681Z,2.05
2017-12-12T07:40:09.790Z,2
2017-12-12T07:41:20.159Z,2.05
2017-12-12T07:42:30.455Z,2.03
2017-12-12T07:43:40.572Z,2.05
2017-12-12T07:44:50.846Z,2.08
2017-12-12T07:46:01.126Z,2.09
2017-12-12T07:47:11.230Z,2
2017-12-12T07:48:21.478Z,2
2017-12-12T07:49:31.228Z,2.03
2017-12-12T07:50:41.549Z,2.05
2017-12-12T07:51:51.533Z,2
2017-12-12T07:53:01.836Z,1.94
2017-12-12T07:54:12.092Z,1.88
2017-12-12T07:55:22.346Z,1.87
2017-12-12T07:56:32.598Z,1.84
2017-12-12T07:57:42.628Z,1.82
2017-12-12T07:58:52.974Z,1.76
2017-12-12T08:00:03.329Z,1.72
2017-12-12T08:01:13.202Z,1.57
2017-12-12T08:02:23.590Z,1.47
2017-12-12T08:03:33.615Z,1.54
2017-12-12T08:04:43.900Z,1.51
2017-12-12T08:05:54.240Z,1.54
2017-12-12T08:07:04.246Z,1.58
2017-12-12T08:08:14.497Z,1.57
2017-12-12T08:09:24.579Z,1.6
2017-12-12T08:10:34.832Z,1.54
2017-12-12T08:11:45.080Z,1.55
2017-12-12T08:12:55.377Z,1.53
2017-12-12T08:14:05.405Z,1.62
2017-12-12T08:15:15.445Z,1.54
2017-12-12T08:16:25.792Z,1.55
2017-12-12T08:17:36.046Z,1.54
2017-12-12T08:18:46.313Z,1.55
2017-12-12T08:19:56.569Z,1.48
2017-12-12T08:21:06.823Z,1.54
2017-12-12T08:22:17.087Z,1.58
2017-12-12T08:23:27.351Z,1.55
2017-12-12T08:24:37.697Z,1.6
2017-12-12T08:25:47.668Z,1.54
2017-12-12T08:26:57.913Z,1.72
2017-12-12T08:28:08.201Z,1.57
2017-12-12T08:29:18.497Z,1.62
2017-12-12T08:30:28.525Z,1.72
2017-12-12T08:31:38.779Z,1.66
2017-12-12T08:32:49.036Z,1.74
2017-12-12T08:33:59.343Z,1.73
2017-12-12T08:35:09.683Z,1.74
2017-12-12T08:36:21.016Z,1.64
2017-12-12T08:37:31.283Z,1.57
2017-12-12T08:38:41.293Z,1.58
2017-12-12T08:39:51.288Z,1.55
2017-12-12T08:41:01.546Z,1.62
2017-12-12T08:42:11.489Z,1.64
2017-12-12T08:43:21.865Z,1.62
2017-12-12T08:44:31.866Z,1.74
2017-12-12T08:45:42.164Z,1.79
2017-12-12T08:46:52.439Z,1.73
2017-12-12T08:48:02.803Z,1.72
2017-12-12T08:49:13.779Z,1.67
2017-12-12T08:50:24.035Z,1.7
2017-12-12T08:51:34.329Z,1.58
2017-12-12T08:52:44.310Z,1.57
2017-12-12T08:53:54.336Z,1.5
2017-12-12T08:55:04.589Z,1.57
2017-12-12T08:56:14.849Z,1.6
2017-12-12T08:57:25.098Z,1.47
2017-12-12T08:58:35.408Z,1.58
2017-12-12T08:59:45.421Z,1.64
2017-12-12T09:00:55.702Z,1.57
2017-12-12T09:02:05.951Z,1.55
2017-12-12T09:03:15.951Z,1.57
2017-12-12T09:04:26.226Z,1.57
2017-12-12T09:05:36.485Z,1.51
2017-12-12T09:06:46.726Z,1.53
2017-12-12T09:07:57.053Z,1.6
2017-12-12T09:09:07.062Z,1.54
2017-12-12T09:10:17.489Z,1.64
2017-12-12T09:11:27.876Z,1.57
2017-12-12T09:12:38.194Z,1.58
2017-12-12T09:13:48.445Z,1.55
2017-12-12T09:14:58.844Z,1.54
2017-12-12T09:16:09.143Z,1.62
2017-12-12T09:17:19.220Z,1.57
2017-12-12T09:18:29.522Z,1.53
2017-12-12T09:19:39.810Z,1.55
2017-12-12T09:20:50.055Z,1.5
2017-12-12T09:22:00.328Z,1.53
2017-12-12T09:23:10.301Z,1.55
2017-12-12T09:24:20.046Z,1.57
2017-12-12T09:25:30.325Z,1.48
2017-12-12T09:26:40.570Z,1.58
2017-12-12T09:27:50.820Z,1.69
2017-12-12T09:29:00.615Z,1.58
2017-12-12T09:30:10.932Z,1.73
2017-12-12T09:31:20.924Z,1.67
2017-12-12T09:32:30.682Z,1.79
2017-12-12T09:33:40.592Z,1.76
2017-12-12T09:34:50.660Z,1.77
2017-12-12T09:36:00.963Z,1.77
2017-12-12T09:37:10.980Z,1.88
2017-12-12T09:38:21.467Z,1.82
2017-12-12T09:39:31.714Z,1.95
2017-12-12T09:40:41.971Z,1.98
2017-12-12T09:41:51.727Z,1.98
2017-12-12T09:43:01.991Z,2.01
2017-12-12T09:44:12.516Z,2.03
2017-12-12T09:45:22.556Z,2
2017-12-12T09:46:32.872Z,2
2017-12-12T09:47:42.807Z,2.08
2017-12-12T09:48:52.794Z,2.09
2017-12-12T09:50:03.036Z,2.1
2017-12-12T09:51:13.295Z,2.15
2017-12-12T09:52:23.555Z,2.18
2017-12-12T09:53:33.285Z,2.13
2017-12-12T09:54:43.326Z,2.08
2017-12-12T09:55:53.633Z,2.06
2017-12-12T09:57:03.887Z,2.1
2017-12-12T09:58:13.884Z,2.1
2017-12-12T09:59:24.126Z,2.15
2017-12-12T10:00:34.461Z,2.06
2017-12-12T10:01:44.862Z,2.15
2017-12-12T10:02:55.116Z,2.16
2017-12-12T10:04:05.254Z,2.24
2017-12-12T10:05:15.244Z,2.23
2017-12-12T10:06:56.890Z,2.33
2017-12-12T10:08:07.151Z,2.37
2017-12-12T10:09:17.453Z,2.42
2017-12-12T10:10:27.710Z,2.23
2017-12-12T10:11:37.785Z,2.28
2017-12-12T10:12:48.058Z,2.46
2017-12-12T10:13:58.316Z,2.42
2017-12-12T10:15:08.598Z,2.42
2017-12-12T10:16:18.865Z,2.39
2017-12-12T10:17:29.149Z,2.34
2017-12-12T10:18:39.154Z,2.46
2017-12-12T10:19:49.417Z,2.44
2017-12-12T10:20:59.443Z,2.34
2017-12-12T10:22:10.387Z,2.42
2017-12-12T10:23:20.665Z,2.28
2017-12-12T10:24:31.016Z,2.3
2017-12-12T10:25:41.299Z,2.42
2017-12-12T10:26:51.593Z,2.33
2017-12-12T10:28:01.608Z,2.44
2017-12-12T10:29:12.145Z,2.45
2017-12-12T10:30:22.146Z,2.45
2017-12-12T10:31:32.452Z,2.48
2017-12-12T10:32:42.845Z,2.48
2017-12-12T10:33:53.148Z,2.48
2017-12-12T10:35:03.404Z,2.48
2017-12-12T10:36:13.715Z,2.46
2017-12-12T10:37:24.039Z,2.55
2017-12-12T10:38:33.943Z,2.55
2017-12-12T10:39:43.943Z,2.67
2017-12-12T10:40:54.217Z,2.69
2017-12-12T10:42:04.563Z,2.71
2017-12-12T10:43:14.897Z,2.74
2017-12-12T10:44:25.142Z,2.71
2017-12-12T10:45:35.393Z,2.84
2017-12-12T10:46:45.523Z,3
2017-12-12T10:47:55.766Z,3.04
2017-12-12T10:49:06.052Z,3.19
2017-12-12T10:50:15.817Z,3.4
2017-12-12T10:51:25.831Z,3.76
2017-12-12T10:52:36.137Z,4.23
2017-12-12T10:53:46.188Z,4.46
2017-12-12T10:54:55.957Z,4.92
2017-12-12T10:56:06.222Z,5.22
2017-12-12T10:57:16.563Z,5.51
2017-12-12T10:58:26.828Z,5.96
2017-12-12T10:59:37.083Z,6.12
2017-12-12T11:00:47.337Z,6.24
2017-12-12T11:01:57.653Z,6.35
2017-12-12T11:03:07.460Z,6.59
2017-12-12T11:04:17.555Z,6.64
2017-12-12T11:05:27.851Z,6.78
2017-12-12T11:06:38.172Z,7
2017-12-12T11:07:48.474Z,7.21
2017-12-12T11:08:58.810Z,7.34
2017-12-12T11:10:08.895Z,7.22
2017-12-12T11:11:18.895Z,7
2017-12-12T11:12:28.788Z,6.71
2017-12-12T11:13:39.063Z,6.49
2017-12-12T11:14:49.338Z,6.2
2017-12-12T11:15:59.701Z,5.9
2017-12-12T11:17:09.958Z,5.72
2017-12-12T11:18:20.254Z,5.58
2017-12-12T11:19:30.514Z,5.29
2017-12-12T11:20:40.610Z,5.17
2017-12-12T11:21:50.865Z,4.96
2017-12-12T11:23:01.137Z,4.75
2017-12-12T11:24:11.509Z,4.57
2017-12-12T11:25:21.395Z,4.49
2017-12-12T11:26:31.404Z,4.41
2017-12-12T11:27:41.662Z,4.23
2017-12-12T11:28:51.985Z,4.22
2017-12-12T11:30:02.305Z,4.2
2017-12-12T11:31:12.630Z,4.12
2017-12-12T11:32:22.882Z,4.27
2017-12-12T11:33:33.156Z,4.46
2017-12-12T11:34:43.432Z,4.7
2017-12-12T11:35:53.743Z,4.9
2017-12-12T11:37:03.750Z,5.16
2017-12-12T11:38:13.782Z,5.31
2017-12-12T11:39:25.012Z,5.32
2017-12-12T11:40:35.066Z,5.33
2017-12-12T11:41:45.391Z,5.33
2017-12-12T11:42:55.681Z,5.29
2017-12-12T11:44:05.686Z,5.4
2017-12-12T11:45:16.021Z,5.25
2017-12-12T11:46:26.008Z,5.26
2017-12-12T11:47:35.986Z,5.26
2017-12-12T11:48:45.970Z,5.17
2017-12-12T11:49:55.825Z,5.14
2017-12-12T11:51:06.187Z,4.92
2017-12-12T11:52:16.439Z,4.81
2017-12-12T11:53:26.693Z,4.74
2017-12-12T11:54:36.945Z,4.71
2017-12-12T11:55:47.596Z,4.63
2017-12-12T11:56:57.853Z,4.67
2017-12-12T11:58:07.922Z,4.62
2017-12-12T11:59:18.249Z,4.55
2017-12-12T12:00:28.578Z,4.65
2017-12-12T12:01:38.598Z,4.7
2017-12-12T12:02:49.037Z,4.75
2017-12-12T12:03:59.146Z,4.77
2017-12-12T12:05:09.413Z,4.7
2017-12-12T12:06:19.723Z,4.71
2017-12-12T12:07:30.036Z,4.74
2017-12-12T12:08:40.096Z,4.77
2017-12-12T12:09:50.042Z,4.65
2017-12-12T12:11:00.072Z,4.63
2017-12-12T12:12:10.322Z,4.59
2017-12-12T12:13:20.581Z,4.55
2017-12-12T12:14:30.829Z,4.53
2017-12-12T12:15:40.474Z,4.4
2017-12-12T12:16:50.739Z,4.41
2017-12-12T12:18:01.065Z,4.28
2017-12-12T12:19:11.120Z,4.2
2017-12-12T12:20:21.381Z,4.11
2017-12-12T12:21:31.636Z,4.15
2017-12-12T12:22:41.920Z,4.19
2017-12-12T12:23:51.934Z,4.12
2017-12-12T12:25:02.205Z,4.09
2017-12-12T12:26:12.122Z,4.08
2017-12-12T12:27:22.563Z,4.15
2017-12-12T12:28:32.924Z,3.98
2017-12-12T12:29:43.188Z,4
2017-12-12T12:30:53.470Z,3.95
2017-12-12T12:32:03.746Z,3.82
2017-12-12T12:33:14.139Z,3.77
2017-12-12T12:34:24.412Z,3.75
2017-12-12T12:35:34.730Z,3.69
2017-12-12T12:36:45.009Z,3.73
2017-12-12T12:37:55.260Z,3.75
2017-12-12T12:39:05.579Z,3.69
2017-12-12T12:40:15.601Z,3.69
2017-12-12T12:41:25.850Z,3.83
2017-12-12T12:42:36.122Z,3.61
2017-12-12T12:43:46.118Z,3.75
2017-12-12T12:44:56.122Z,3.65
2017-12-12T12:46:06.271Z,3.76
2017-12-12T12:47:16.534Z,3.69
2017-12-12T12:48:26.795Z,3.69
2017-12-12T12:49:36.844Z,3.72
2017-12-12T12:50:48.122Z,3.73
2017-12-12T12:51:58.370Z,3.57
2017-12-12T12:53:08.612Z,3.55
2017-12-12T12:54:18.911Z,3.67
2017-12-12T12:55:29.220Z,3.61
2017-12-12T12:56:39.283Z,3.61
2017-12-12T12:57:49.529Z,3.55
2017-12-12T12:58:59.620Z,3.73
2017-12-12T13:00:09.889Z,3.69
2017-12-12T13:01:20.160Z,3.69
2017-12-12T13:02:30.412Z,3.72
2017-12-12T13:03:40.677Z,3.68
2017-12-12T13:04:50.946Z,3.72
2017-12-12T13:06:01.196Z,3.75
2017-12-12T13:07:10.977Z,3.72
2017-12-12T13:08:20.966Z,3.73
2017-12-12T13:09:31.224Z,3.67
2017-12-12T13:10:41.216Z,3.69
2017-12-12T13:11:51.500Z,3.73
2017-12-12T13:13:01.759Z,3.69
2017-12-12T13:14:12.049Z,3.65
2017-12-12T13:15:22.335Z,3.65
2017-12-12T13:16:32.595Z,3.67
2017-12-12T13:17:42.607Z,3.58
2017-12-12T13:18:52.639Z,3.49
2017-12-12T13:20:03.013Z,3.52
2017-12-12T13:21:13.039Z,3.34
2017-12-12T13:22:23.056Z,3.42
2017-12-12T13:23:33.014Z,3.36
2017-12-12T13:24:42.901Z,3.34
2017-12-12T13:25:53.187Z,3.29
2017-12-12T13:27:03.215Z,3.34
2017-12-12T13:28:13.479Z,3.24
2017-12-12T13:29:23.773Z,3.15
2017-12-12T13:30:33.572Z,3.19
2017-12-12T13:31:43.975Z,3.15
2017-12-12T13:32:54.225Z,3.26
2017-12-12T13:34:04.243Z,3.19
2017-12-12T13:35:14.538Z,3.16
2017-12-12T13:36:24.748Z,3.15
2017-12-12T13:37:34.831Z,3.1
2017-12-12T13:38:45.288Z,3.21
2017-12-12T13:39:55.063Z,3.21
2017-12-12T13:41:05.322Z,3.16
2017-12-12T13:42:15.316Z,3.19
2017-12-12T13:43:25.688Z,3.21
2017-12-12T13:44:36.027Z,3.19
2017-12-12T13:45:45.758Z,3.24
2017-12-12T13:46:56.075Z,3.08
2017-12-12T13:48:06.162Z,3.02
2017-12-12T13:49:15.926Z,2.96
2017-12-12T13:50:26.213Z,3.07
2017-12-12T13:51:36.551Z,2.88
2017-12-12T13:52:46.819Z,2.85
2017-12-12T13:53:57.127Z,2.89
2017-12-12T13:55:07.408Z,2.92
2017-12-12T13:56:17.516Z,2.99
2017-12-12T13:57:27.811Z,2.91
2017-12-12T13:58:37.864Z,2.81
2017-12-12T13:59:47.885Z,2.91
2017-12-12T14:00:57.905Z,2.91
2017-12-12T14:02:08.204Z,2.96
2017-12-12T14:03:18.167Z,2.96
2017-12-12T14:04:28.176Z,2.91
2017-12-12T14:05:38.490Z,2.91
2017-12-12T14:06:48.781Z,2.97
2017-12-12T14:07:59.105Z,2.85
2017-12-12T14:09:09.374Z,2.96
2017-12-12T14:10:19.691Z,2.85
2017-12-12T14:11:29.340Z,2.88
2017-12-12T14:12:39.731Z,2.77
2017-12-12T14:13:50.001Z,2.81
2017-12-12T14:15:00.730Z,2.87
2017-12-12T14:16:11.066Z,2.88
2017-12-12T14:17:21.140Z,2.84
2017-12-12T14:18:31.441Z,2.89
2017-12-12T14:19:41.705Z,2.94
2017-12-12T14:20:52.121Z,2.92
2017-12-12T14:22:02.120Z,2.82
2017-12-12T14:23:12.442Z,2.79
2017-12-12T14:24:22.496Z,2.71
2017-12-12T14:25:32.809Z,2.81
2017-12-12T14:26:43.090Z,2.74
2017-12-12T14:27:53.374Z,2.69
2017-12-12T14:29:03.744Z,2.62
2017-12-12T14:30:14.008Z,2.66
2017-12-12T14:31:24.319Z,2.62
2017-12-12T14:32:34.351Z,2.64
2017-12-12T14:33:44.615Z,2.64
2017-12-12T14:34:54.935Z,2.69
2017-12-12T14:36:05.253Z,2.56
2017-12-12T14:37:15.525Z,2.55
2017-12-12T14:38:25.584Z,2.53
2017-12-12T14:39:35.852Z,2.6
2017-12-12T14:40:45.660Z,2.55
2017-12-12T14:41:55.936Z,2.62
2017-12-12T14:43:06.236Z,2.62
2017-12-12T14:44:15.981Z,2.67
2017-12-12T14:45:26.425Z,2.6
2017-12-12T14:46:36.750Z,2.67
2017-12-12T14:47:47.031Z,2.63
2017-12-12T14:48:57.282Z,2.6
2017-12-12T14:50:07.674Z,2.62
2017-12-12T14:51:17.685Z,2.64
2017-12-12T14:52:28.261Z,2.51
2017-12-12T14:53:38.359Z,2.49
2017-12-12T14:54:48.633Z,2.52
2017-12-12T14:55:58.905Z,2.48
2017-12-12T14:57:08.632Z,2.44
2017-12-12T14:58:18.906Z,2.39
2017-12-12T14:59:29.190Z,2.33
2017-12-12T15:00:39.151Z,2.36
2017-12-12T15:01:49.424Z,2.37
2017-12-12T15:02:59.740Z,2.3
2017-12-12T15:04:10.008Z,2.27
2017-12-12T15:05:20.298Z,2.19
2017-12-12T15:06:30.369Z,2.24
2017-12-12T15:07:40.641Z,2.23
2017-12-12T15:08:51.886Z,2.26
2017-12-12T15:10:02.213Z,2.16
2017-12-12T15:11:12.498Z,2.08
2017-12-12T15:12:22.554Z,2.16
2017-12-12T15:13:32.283Z,2.19
2017-12-12T15:14:42.566Z,2.16
2017-12-12T15:15:52.990Z,2.12
2017-12-12T15:17:03.307Z,2.12
2017-12-12T15:18:13.603Z,2.1
2017-12-12T15:19:23.638Z,2.06
2017-12-12T15:20:34.054Z,1.98
2017-12-12T15:21:44.374Z,1.98
2017-12-12T15:22:54.387Z,1.91
2017-12-12T15:24:04.706Z,1.9
2017-12-12T15:25:14.995Z,1.79
2017-12-12T15:26:25.282Z,1.84
2017-12-12T15:27:35.018Z,1.73
2017-12-12T15:28:45.130Z,1.73
2017-12-12T15:29:55.405Z,1.72
2017-12-12T15:31:05.685Z,1.84
2017-12-12T15:32:15.983Z,1.82
2017-12-12T15:33:26.045Z,1.77
2017-12-12T15:34:36.342Z,1.85
2017-12-12T15:35:46.689Z,1.7
2017-12-12T15:36:57.054Z,1.8
2017-12-12T15:38:07.346Z,1.79
2017-12-12T15:39:17.682Z,1.69
2017-12-12T15:40:27.971Z,1.77
2017-12-12T15:41:38.266Z,1.7
2017-12-12T15:42:48.802Z,1.73